createdAt,value
2017-01-17T00:00:50.753Z,42.12
2017-01-17T00:01:50.379Z,42.12
2017-01-17T00:02:50.403Z,42.03
2017-01-17T00:03:50.424Z,42.03
2017-01-17T00:04:50.461Z,42.5
2017-01-17T00:05:50.877Z,42.32
2017-01-17T00:06:50.909Z,42.32
2017-01-17T00:07:50.914Z,42.22
2017-01-17T00:08:50.568Z,42.12
2017-01-17T00:09:50.976Z,42.12
2017-01-17T00:10:51.005Z,42.12
2017-01-17T00:11:50.636Z,42.22
2017-01-17T00:12:51.070Z,42.22
2017-01-17T00:13:50.687Z,41.74
2017-01-17T00:14:50.708Z,42.03
2017-01-17T00:15:50.740Z,41.55
2017-01-17T00:16:51.159Z,41.64
2017-01-17T00:17:50.789Z,41.93
2017-01-17T00:18:51.222Z,42.03
2017-01-17T00:19:50.842Z,41.93
2017-01-17T00:20:50.879Z,41.83
2017-01-17T00:21:50.892Z,42.03
2017-01-17T00:22:51.308Z,41.93
2017-01-17T00:23:50.945Z,41.83
2017-01-17T00:24:51.366Z,41.83
2017-01-17T00:25:51.390Z,41.55
2017-01-17T00:26:51.023Z,41.62
2017-01-17T00:27:51.048Z,41.35
2017-01-17T00:28:51.468Z,41.14
2017-01-17T00:29:51.097Z,41.33
2017-01-17T00:30:51.126Z,41.33
2017-01-17T00:31:51.146Z,41.43
2017-01-17T00:32:51.575Z,41.53
2017-01-17T00:33:51.600Z,41.43
2017-01-17T00:34:51.236Z,41.33
2017-01-17T00:35:51.645Z,41.43
2017-01-17T00:36:51.687Z,41.53
2017-01-17T00:37:51.303Z,41.53
2017-01-17T00:38:51.727Z,41.62
2017-01-17T00:39:51.752Z,41.62
2017-01-17T00:40:51.381Z,41.43
2017-01-17T00:41:51.802Z,41.53
2017-01-17T00:42:51.442Z,40.95
2017-01-17T00:43:51.458Z,41.43
2017-01-17T00:44:51.483Z,40.95
2017-01-17T00:45:51.507Z,41.14
2017-01-17T00:46:51.932Z,41.53
2017-01-17T00:47:51.955Z,40.95
2017-01-17T00:48:51.990Z,40.95
2017-01-17T00:49:51.615Z,41.33
2017-01-17T00:50:52.032Z,41.14
2017-01-17T00:51:52.064Z,41.24
2017-01-17T00:52:51.696Z,41.33
2017-01-17T00:53:52.112Z,41.05
2017-01-17T00:54:51.749Z,41.05
2017-01-17T00:55:52.162Z,41.33
2017-01-17T00:56:52.202Z,41.05
2017-01-17T00:57:51.815Z,41.43
2017-01-17T00:58:51.860Z,41.24
2017-01-17T00:59:51.868Z,41.33
2017-01-17T01:00:52.290Z,41.24
2017-01-17T01:01:51.913Z,41.24
2017-01-17T01:02:51.942Z,41.14
2017-01-17T01:03:51.961Z,41.33
2017-01-17T01:04:51.995Z,41.14
2017-01-17T01:05:52.016Z,41.33
2017-01-17T01:06:52.441Z,41.33
2017-01-17T01:07:52.466Z,41.14
2017-01-17T01:08:52.498Z,40.95
2017-01-17T01:09:52.123Z,41.43
2017-01-17T01:10:52.552Z,41.14
2017-01-17T01:11:52.568Z,41.14
2017-01-17T01:12:52.197Z,41.05
2017-01-17T01:13:52.225Z,41.43
2017-01-17T01:14:52.650Z,40.76
2017-01-17T01:15:52.275Z,41.05
2017-01-17T01:16:52.299Z,41.33
2017-01-17T01:17:52.721Z,40.76
2017-01-17T01:18:52.753Z,41.05
2017-01-17T01:19:52.769Z,41.24
2017-01-17T01:20:52.402Z,41.02
2017-01-17T01:21:52.827Z,40.76
2017-01-17T01:22:52.844Z,41.02
2017-01-17T01:23:52.873Z,41.33
2017-01-17T01:24:52.925Z,41.12
2017-01-17T01:25:52.529Z,41.22
2017-01-17T01:26:52.946Z,41.14
2017-01-17T01:27:52.579Z,40.76
2017-01-17T01:28:52.599Z,41.31
2017-01-17T01:29:52.632Z,41.41
2017-01-17T01:30:53.049Z,41.02
2017-01-17T01:31:53.077Z,41.02
2017-01-17T01:32:53.110Z,41.12
2017-01-17T01:33:52.731Z,40.93
2017-01-17T01:34:53.159Z,41.02
2017-01-17T01:35:53.177Z,41.12
2017-01-17T01:36:53.209Z,41.12
2017-01-17T01:37:53.226Z,41.12
2017-01-17T01:38:52.854Z,41.02
2017-01-17T01:39:52.883Z,41.12
2017-01-17T01:40:53.315Z,41.02
2017-01-17T01:41:52.932Z,41.14
2017-01-17T01:42:53.357Z,41.12
2017-01-17T01:43:52.982Z,41.12
2017-01-17T01:44:53.007Z,41.22
2017-01-17T01:45:53.431Z,41.12
2017-01-17T01:46:53.067Z,41.12
2017-01-17T01:47:53.484Z,41.02
2017-01-17T01:48:53.113Z,41.41
2017-01-17T01:49:53.534Z,41.22
2017-01-17T01:50:53.570Z,41.41
2017-01-17T01:51:53.191Z,41.31
2017-01-17T01:52:53.607Z,41.22
2017-01-17T01:53:53.636Z,41.31
2017-01-17T01:54:53.657Z,41.31
2017-01-17T01:55:53.290Z,41.41
2017-01-17T01:56:53.322Z,41.31
2017-01-17T01:57:53.736Z,41.5
2017-01-17T01:58:53.768Z,41.22
2017-01-17T01:59:53.387Z,41.12
2017-01-17T02:00:53.821Z,41.22
2017-01-17T02:01:53.446Z,41.22
2017-01-17T02:02:53.870Z,41.5
2017-01-17T02:03:53.491Z,41.02
2017-01-17T02:04:53.528Z,40.93
2017-01-17T02:05:53.941Z,41.31
2017-01-17T02:06:53.973Z,41.5
2017-01-17T02:07:53.598Z,41.6
2017-01-17T02:08:53.619Z,40.64
2017-01-17T02:09:53.640Z,40.83
2017-01-17T02:10:53.669Z,41.31
2017-01-17T02:11:54.085Z,41.41
2017-01-17T02:12:53.721Z,40.55
2017-01-17T02:13:53.742Z,41.12
2017-01-17T02:14:53.780Z,40.83
2017-01-17T02:15:54.188Z,40.93
2017-01-17T02:16:54.217Z,40.83
2017-01-17T02:17:54.236Z,40.64
2017-01-17T02:18:54.261Z,41.41
2017-01-17T02:19:54.291Z,41.41
2017-01-17T02:20:53.919Z,40.73
2017-01-17T02:21:53.944Z,40.64
2017-01-17T02:22:53.973Z,40.55
2017-01-17T02:23:54.393Z,40.73
2017-01-17T02:24:54.022Z,40.83
2017-01-17T02:25:54.443Z,40.73
2017-01-17T02:26:54.469Z,40.73
2017-01-17T02:27:54.493Z,40.93
2017-01-17T02:28:54.117Z,40.55
2017-01-17T02:29:54.145Z,40.83
2017-01-17T02:30:54.566Z,40.73
2017-01-17T02:31:54.204Z,40.73
2017-01-17T02:32:54.224Z,40.73
2017-01-17T02:33:54.249Z,41.02
2017-01-17T02:34:54.678Z,40.93
2017-01-17T02:35:54.694Z,40.73
2017-01-17T02:36:54.731Z,40.64
2017-01-17T02:37:54.344Z,41.02
2017-01-17T02:38:54.768Z,40.55
2017-01-17T02:39:54.401Z,40.62
2017-01-17T02:40:54.436Z,40.52
2017-01-17T02:41:54.452Z,41
2017-01-17T02:42:54.476Z,40.83
2017-01-17T02:43:54.902Z,40.43
2017-01-17T02:44:54.526Z,40.83
2017-01-17T02:45:54.949Z,40.73
2017-01-17T02:46:54.581Z,40.81
2017-01-17T02:47:54.998Z,40.14
2017-01-17T02:48:54.634Z,40.62
2017-01-17T02:49:54.652Z,40.55
2017-01-17T02:50:54.689Z,40.62
2017-01-17T02:51:55.095Z,40.91
2017-01-17T02:52:54.727Z,40.43
2017-01-17T02:53:55.152Z,40.72
2017-01-17T02:54:55.175Z,40.72
2017-01-17T02:55:54.805Z,40.73
2017-01-17T02:56:54.829Z,40.52
2017-01-17T02:57:54.854Z,40.73
2017-01-17T02:58:54.879Z,40.72
2017-01-17T02:59:54.903Z,41
2017-01-17T03:00:54.930Z,40.72
2017-01-17T03:01:55.376Z,40.72
2017-01-17T03:02:55.366Z,40.81
2017-01-17T03:03:55.010Z,40.72
2017-01-17T03:04:55.031Z,40.72
2017-01-17T03:05:55.056Z,40.81
2017-01-17T03:06:55.491Z,40.91
2017-01-17T03:07:55.105Z,40.91
2017-01-17T03:08:55.522Z,40.72
2017-01-17T03:09:55.548Z,40.52
2017-01-17T03:10:55.583Z,40.91
2017-01-17T03:11:55.204Z,40.72
2017-01-17T03:12:55.637Z,40.72
2017-01-17T03:13:55.653Z,40.72
2017-01-17T03:14:55.280Z,40.91
2017-01-17T03:15:55.703Z,40.52
2017-01-17T03:16:55.340Z,40.33
2017-01-17T03:17:55.356Z,40.81
2017-01-17T03:18:55.781Z,40.91
2017-01-17T03:19:55.401Z,40.91
2017-01-17T03:20:55.827Z,40.72
2017-01-17T03:21:55.879Z,40.91
2017-01-17T03:22:55.476Z,41
2017-01-17T03:23:55.905Z,40.81
2017-01-17T03:24:55.542Z,40.81
2017-01-17T03:25:55.950Z,40.72
2017-01-17T03:26:55.980Z,40.81
2017-01-17T03:27:55.608Z,40.91
2017-01-17T03:28:55.638Z,40.52
2017-01-17T03:29:55.658Z,40.33
2017-01-17T03:30:55.690Z,40.91
2017-01-17T03:31:56.102Z,40.72
2017-01-17T03:32:55.740Z,40.81
2017-01-17T03:33:56.167Z,40.72
2017-01-17T03:34:56.186Z,40.72
2017-01-17T03:35:56.206Z,40.81
2017-01-17T03:36:55.838Z,40.81
2017-01-17T03:37:55.851Z,40.62
2017-01-17T03:38:56.292Z,40.62
2017-01-17T03:39:55.916Z,40.43
2017-01-17T03:40:55.938Z,40.52
2017-01-17T03:41:56.360Z,41
2017-01-17T03:42:56.396Z,40.72
2017-01-17T03:43:56.404Z,41
2017-01-17T03:44:56.065Z,40.62
2017-01-17T03:45:56.453Z,40.62
2017-01-17T03:46:56.498Z,40.52
2017-01-17T03:47:56.503Z,41
2017-01-17T03:48:56.532Z,41.1
2017-01-17T03:49:56.157Z,40.33
2017-01-17T03:50:56.581Z,40.62
2017-01-17T03:51:56.602Z,40.52
2017-01-17T03:52:56.238Z,40.81
2017-01-17T03:53:56.654Z,40.52
2017-01-17T03:54:56.292Z,40.23
2017-01-17T03:55:56.709Z,40.14
2017-01-17T03:56:56.350Z,40.23
2017-01-17T03:57:56.362Z,40.33
2017-01-17T03:58:56.399Z,40.43
2017-01-17T03:59:56.808Z,40.52
2017-01-17T04:00:56.441Z,40.43
2017-01-17T04:01:56.457Z,40.72
2017-01-17T04:02:56.494Z,40.43
2017-01-17T04:03:56.513Z,40.62
2017-01-17T04:04:56.940Z,40.14
2017-01-17T04:05:56.563Z,40.52
2017-01-17T04:06:56.997Z,40.52
2017-01-17T04:07:57.016Z,40.43
2017-01-17T04:08:57.335Z,40.43
2017-01-17T04:09:57.059Z,40.05
2017-01-17T04:10:56.688Z,40.52
2017-01-17T04:11:56.713Z,40.52
2017-01-17T04:12:56.738Z,40.23
2017-01-17T04:13:56.758Z,40.52
2017-01-17T04:14:57.192Z,40.62
2017-01-17T04:15:57.212Z,40.43
2017-01-17T04:16:57.232Z,40.05
2017-01-17T04:17:56.865Z,39.95
2017-01-17T04:18:57.286Z,40.14
2017-01-17T04:19:56.916Z,40.05
2017-01-17T04:20:56.936Z,40.05
2017-01-17T04:21:56.973Z,40.14
2017-01-17T04:22:57.381Z,39.85
2017-01-17T04:23:57.015Z,40.05
2017-01-17T04:24:57.439Z,40.05
2017-01-17T04:25:57.463Z,40.14
2017-01-17T04:26:57.088Z,40.05
2017-01-17T04:27:57.513Z,40.05
2017-01-17T04:28:57.138Z,40.05
2017-01-17T04:29:57.167Z,40.23
2017-01-17T04:30:57.587Z,39.85
2017-01-17T04:31:57.608Z,39.85
2017-01-17T04:32:57.632Z,39.95
2017-01-17T04:33:57.657Z,40.05
2017-01-17T04:34:57.290Z,40.05
2017-01-17T04:35:57.319Z,40.14
2017-01-17T04:36:57.344Z,40.05
2017-01-17T04:37:57.364Z,39.76
2017-01-17T04:38:57.781Z,39.85
2017-01-17T04:39:57.810Z,39.76
2017-01-17T04:40:57.443Z,40.05
2017-01-17T04:41:57.467Z,39.85
2017-01-17T04:42:57.888Z,40.05
2017-01-17T04:43:57.913Z,39.85
2017-01-17T04:44:57.537Z,39.76
2017-01-17T04:45:57.568Z,40.05
2017-01-17T04:46:57.596Z,40.05
2017-01-17T04:47:58.012Z,39.93
2017-01-17T04:48:58.037Z,40.14
2017-01-17T04:49:58.061Z,39.85
2017-01-17T04:50:57.690Z,39.83
2017-01-17T04:51:57.719Z,39.85
2017-01-17T04:52:58.140Z,39.47
2017-01-17T04:53:57.767Z,39.54
2017-01-17T04:54:58.189Z,39.56
2017-01-17T04:55:58.218Z,39.28
2017-01-17T04:56:58.238Z,39.64
2017-01-17T04:57:58.259Z,39.85
2017-01-17T04:58:57.892Z,39.76
2017-01-17T04:59:57.917Z,39.76
2017-01-17T05:00:58.337Z,39.93
2017-01-17T05:01:57.970Z,39.85
2017-01-17T05:02:58.391Z,39.85
2017-01-17T05:03:58.411Z,39.95
2017-01-17T05:04:58.040Z,39.66
2017-01-17T05:05:58.465Z,39.56
2017-01-17T05:06:58.490Z,39.66
2017-01-17T05:07:58.115Z,40.02
2017-01-17T05:08:58.540Z,39.83
2017-01-17T05:09:58.568Z,39.64
2017-01-17T05:10:58.589Z,40.02
2017-01-17T05:11:58.613Z,39.37
2017-01-17T05:12:58.246Z,39.54
2017-01-17T05:13:58.663Z,39.73
2017-01-17T05:14:58.688Z,39.37
2017-01-17T05:15:58.320Z,39.54
2017-01-17T05:16:58.345Z,39.64
2017-01-17T05:17:58.369Z,39.45
2017-01-17T05:18:58.800Z,39.26
2017-01-17T05:19:58.819Z,39.45
2017-01-17T05:20:58.839Z,39.73
2017-01-17T05:21:58.468Z,39.45
2017-01-17T05:22:58.889Z,39.35
2017-01-17T05:23:58.914Z,39.35
2017-01-17T05:24:58.543Z,39.06
2017-01-17T05:25:58.967Z,39.26
2017-01-17T05:26:58.985Z,39.06
2017-01-17T05:27:59.025Z,39.37
2017-01-17T05:28:58.641Z,39.35
2017-01-17T05:29:58.670Z,39.16
2017-01-17T05:30:59.091Z,39.18
2017-01-17T05:31:59.120Z,39.37
2017-01-17T05:32:58.744Z,39.37
2017-01-17T05:33:59.165Z,39.08
2017-01-17T05:34:58.794Z,38.99
2017-01-17T05:35:59.215Z,39.37
2017-01-17T05:36:59.236Z,39.47
2017-01-17T05:37:58.872Z,39.18
2017-01-17T05:38:59.280Z,39.28
2017-01-17T05:39:59.314Z,39.18
2017-01-17T05:40:58.946Z,39.18
2017-01-17T05:41:58.968Z,39.18
2017-01-17T05:42:58.996Z,39.28
2017-01-17T05:43:59.412Z,39.47
2017-01-17T05:44:59.440Z,39.28
2017-01-17T05:45:59.462Z,38.79
2017-01-17T05:46:59.094Z,38.99
2017-01-17T05:47:59.118Z,39.08
2017-01-17T05:48:59.540Z,38.91
2017-01-17T05:49:59.565Z,38.89
2017-01-17T05:50:59.589Z,38.6
2017-01-17T05:51:59.614Z,38.81
2017-01-17T05:52:59.642Z,38.62
2017-01-17T05:53:59.663Z,38.72
2017-01-17T05:54:59.290Z,38.43
2017-01-17T05:55:59.340Z,38.53
2017-01-17T05:56:59.741Z,38.34
2017-01-17T05:57:59.366Z,38.53
2017-01-17T05:58:59.395Z,38.72
2017-01-17T05:59:59.815Z,38.72
2017-01-17T06:00:59.840Z,38.53
2017-01-17T06:01:59.869Z,38.72
2017-01-17T06:02:59.894Z,38.81
2017-01-17T06:03:59.922Z,38.81
2017-01-17T06:04:59.551Z,38.62
2017-01-17T06:05:59.970Z,38.72
2017-01-17T06:06:59.592Z,38.62
2017-01-17T06:07:59.633Z,38.43
2017-01-17T06:08:59.650Z,39.2
2017-01-17T06:10:00.072Z,38.84
2017-01-17T06:10:59.695Z,39.11
2017-01-17T06:12:00.116Z,39.01
2017-01-17T06:12:59.745Z,38.84
2017-01-17T06:14:00.169Z,39.12
2017-01-17T06:14:59.800Z,39.29
2017-01-17T06:15:59.823Z,39.31
2017-01-17T06:17:00.248Z,39.31
2017-01-17T06:18:00.268Z,39.31
2017-01-17T06:19:00.298Z,39.31
2017-01-17T06:19:59.922Z,39.41
2017-01-17T06:20:59.946Z,39.22
2017-01-17T06:21:59.980Z,39.22
2017-01-17T06:22:59.995Z,39.31
2017-01-17T06:24:00.029Z,39.31
2017-01-17T06:25:00.450Z,39.22
2017-01-17T06:26:00.479Z,39.31
2017-01-17T06:27:00.500Z,39.22
2017-01-17T06:28:00.520Z,39.31
2017-01-17T06:29:00.553Z,39.31
2017-01-17T06:30:00.577Z,39.03
2017-01-17T06:31:00.602Z,39.12
2017-01-17T06:32:00.635Z,39.41
2017-01-17T06:33:00.652Z,39.12
2017-01-17T06:34:00.281Z,39.89
2017-01-17T06:35:00.309Z,39.7
2017-01-17T06:36:00.334Z,39.89
2017-01-17T06:37:00.751Z,39.89
2017-01-17T06:38:00.383Z,39.79
2017-01-17T06:39:00.408Z,39.79
2017-01-17T06:40:00.829Z,39.61
2017-01-17T06:41:00.461Z,39.89
2017-01-17T06:42:00.486Z,40.18
2017-01-17T06:43:00.507Z,39.89
2017-01-17T06:44:00.533Z,39.99
2017-01-17T06:45:00.561Z,39.7
2017-01-17T06:46:00.982Z,39.89
2017-01-17T06:47:01.010Z,39.89
2017-01-17T06:48:01.035Z,39.99
2017-01-17T06:49:01.059Z,39.99
2017-01-17T06:50:00.688Z,40.08
2017-01-17T06:51:00.717Z,39.99
2017-01-17T06:52:00.738Z,40.08
2017-01-17T06:53:00.766Z,39.91
2017-01-17T06:54:00.811Z,39.99
2017-01-17T06:55:00.815Z,39.99
2017-01-17T06:56:01.238Z,39.79
2017-01-17T06:57:01.265Z,39.99
2017-01-17T06:58:01.290Z,39.72
2017-01-17T06:59:00.922Z,39.89
2017-01-17T07:00:01.348Z,39.79
2017-01-17T07:01:01.368Z,39.7
2017-01-17T07:02:01.397Z,40.01
2017-01-17T07:03:01.422Z,40.01
2017-01-17T07:04:01.447Z,40.01
2017-01-17T07:05:01.472Z,40.01
2017-01-17T07:06:01.500Z,39.91
2017-01-17T07:07:01.525Z,39.51
2017-01-17T07:08:01.545Z,39.53
2017-01-17T07:09:01.178Z,39.61
2017-01-17T07:10:01.195Z,39.53
2017-01-17T07:11:01.624Z,39.91
2017-01-17T07:12:01.651Z,39.79
2017-01-17T07:13:01.281Z,39.91
2017-01-17T07:14:01.306Z,39.79
2017-01-17T07:15:01.727Z,39.81
2017-01-17T07:16:01.355Z,39.72
2017-01-17T07:17:01.776Z,39.81
2017-01-17T07:18:01.409Z,40.01
2017-01-17T07:19:01.825Z,40.11
2017-01-17T07:20:01.459Z,40.01
2017-01-17T07:21:01.880Z,39.53
2017-01-17T07:22:01.512Z,39.04
2017-01-17T07:23:01.931Z,39.43
2017-01-17T07:24:01.561Z,39.43
2017-01-17T07:25:01.982Z,39.43
2017-01-17T07:26:02.010Z,39.43
2017-01-17T07:27:02.031Z,39.24
2017-01-17T07:28:02.056Z,39.04
2017-01-17T07:29:01.685Z,39.33
2017-01-17T07:30:02.113Z,39.33
2017-01-17T07:31:01.742Z,39.24
2017-01-17T07:32:01.763Z,39.24
2017-01-17T07:33:02.188Z,39.24
2017-01-17T07:34:02.215Z,39.24
2017-01-17T07:35:02.245Z,39.53
2017-01-17T07:36:01.869Z,39.33
2017-01-17T07:37:01.895Z,39.43
2017-01-17T07:38:02.323Z,39.14
2017-01-17T07:39:01.940Z,39.43
2017-01-17T07:40:01.969Z,38.85
2017-01-17T07:41:01.997Z,39.04
2017-01-17T07:42:02.026Z,39.14
2017-01-17T07:43:02.451Z,39.14
2017-01-17T07:44:02.472Z,38.85
2017-01-17T07:45:02.100Z,38.85
2017-01-17T07:46:02.522Z,38.85
2017-01-17T07:47:02.549Z,38.85
2017-01-17T07:48:02.575Z,38.85
2017-01-17T07:49:02.599Z,39.04
2017-01-17T07:50:02.232Z,38.76
2017-01-17T07:51:02.653Z,38.47
2017-01-17T07:52:02.282Z,38.95
2017-01-17T07:53:02.709Z,38.85
2017-01-17T07:54:02.730Z,38.95
2017-01-17T07:55:02.359Z,38.76
2017-01-17T07:56:02.383Z,38.66
2017-01-17T07:57:02.805Z,38.95
2017-01-17T07:58:02.833Z,39.04
2017-01-17T07:59:02.858Z,39.04
2017-01-17T08:00:02.496Z,38.56
2017-01-17T08:01:02.519Z,38.66
2017-01-17T08:02:02.936Z,38.74
2017-01-17T08:03:02.565Z,38.84
2017-01-17T08:04:02.985Z,38.74
2017-01-17T08:05:03.010Z,38.84
2017-01-17T08:06:02.643Z,38.54
2017-01-17T08:07:03.079Z,38.76
2017-01-17T08:08:02.692Z,38.64
2017-01-17T08:09:03.117Z,38.64
2017-01-17T08:10:03.144Z,38.26
2017-01-17T08:11:02.766Z,38.45
2017-01-17T08:12:02.791Z,38.84
2017-01-17T08:13:03.215Z,38.93
2017-01-17T08:14:03.240Z,38.74
2017-01-17T08:15:03.269Z,39.03
2017-01-17T08:16:03.294Z,38.64
2017-01-17T08:17:02.922Z,38.74
2017-01-17T08:18:03.345Z,38.26
2017-01-17T08:19:03.368Z,38.93
2017-01-17T08:20:02.996Z,38.84
2017-01-17T08:21:03.417Z,39.03
2017-01-17T08:22:03.058Z,38.64
2017-01-17T08:23:03.086Z,38.54
2017-01-17T08:24:03.500Z,38.93
2017-01-17T08:25:03.128Z,38.84
2017-01-17T08:26:03.157Z,38.93
2017-01-17T08:27:03.583Z,38.74
2017-01-17T08:28:03.202Z,38.54
2017-01-17T08:29:03.227Z,38.74
2017-01-17T08:30:03.258Z,38.84
2017-01-17T08:31:03.680Z,38.74
2017-01-17T08:32:03.701Z,38.93
2017-01-17T08:33:03.334Z,38.64
2017-01-17T08:34:03.362Z,39.12
2017-01-17T08:35:03.779Z,38.64
2017-01-17T08:36:03.804Z,38.93
2017-01-17T08:37:03.837Z,38.93
2017-01-17T08:38:03.857Z,38.84
2017-01-17T08:39:03.886Z,38.84
2017-01-17T08:40:03.910Z,39.03
2017-01-17T08:41:03.939Z,38.84
2017-01-17T08:42:03.563Z,38.93
2017-01-17T08:43:03.584Z,38.93
2017-01-17T08:44:04.017Z,39.51
2017-01-17T08:45:03.639Z,38.93
2017-01-17T08:46:04.062Z,38.84
2017-01-17T08:47:03.684Z,39.03
2017-01-17T08:48:03.719Z,38.84
2017-01-17T08:49:04.143Z,38.54
2017-01-17T08:50:03.769Z,38.74
2017-01-17T08:51:04.186Z,39.22
2017-01-17T08:52:03.825Z,39.22
2017-01-17T08:53:04.263Z,38.93
2017-01-17T08:54:04.267Z,38.84
2017-01-17T08:55:04.300Z,38.28
2017-01-17T08:56:04.320Z,38.37
2017-01-17T08:57:03.946Z,38.76
2017-01-17T08:58:04.375Z,38.56
2017-01-17T08:59:03.999Z,38.95
2017-01-17T09:00:04.028Z,38.66
2017-01-17T09:01:04.053Z,38.47
2017-01-17T09:02:04.078Z,38.37
2017-01-17T09:03:04.493Z,38.76
2017-01-17T09:04:04.130Z,38.95
2017-01-17T09:05:04.159Z,38.47
2017-01-17T09:06:04.180Z,38.28
2017-01-17T09:07:04.209Z,38.28
2017-01-17T09:08:04.230Z,38.18
2017-01-17T09:09:04.254Z,38.37
2017-01-17T09:10:04.284Z,38.2
2017-01-17T09:11:04.708Z,38.01
2017-01-17T09:12:04.732Z,37.72
2017-01-17T09:13:04.361Z,37.91
2017-01-17T09:14:04.393Z,37.62
2017-01-17T09:15:04.415Z,37.62
2017-01-17T09:16:04.439Z,37.52
2017-01-17T09:17:04.852Z,37.24
2017-01-17T09:18:04.888Z,37.04
2017-01-17T09:19:04.522Z,37.24
2017-01-17T09:20:04.942Z,37.34
2017-01-17T09:21:04.570Z,37.24
2017-01-17T09:22:04.999Z,37.14
2017-01-17T09:23:05.016Z,37.24
2017-01-17T09:24:04.645Z,37.24
2017-01-17T09:25:05.062Z,37.04
2017-01-17T09:26:04.700Z,37.04
2017-01-17T09:27:05.123Z,37.52
2017-01-17T09:28:05.147Z,36.95
2017-01-17T09:29:04.776Z,37.34
2017-01-17T09:30:04.797Z,37.04
2017-01-17T09:31:04.830Z,36.85
2017-01-17T09:32:05.255Z,36.95
2017-01-17T09:33:05.271Z,36.85
2017-01-17T09:34:05.304Z,37.04
2017-01-17T09:35:05.328Z,36.76
2017-01-17T09:36:04.953Z,36.97
2017-01-17T09:37:04.981Z,36.66
2017-01-17T09:38:05.011Z,36.77
2017-01-17T09:39:05.037Z,36.66
2017-01-17T09:40:05.064Z,36.68
2017-01-17T09:41:05.485Z,36.58
2017-01-17T09:42:05.114Z,36.68
2017-01-17T09:43:05.143Z,36.68
2017-01-17T09:44:05.565Z,36.58
2017-01-17T09:45:05.592Z,36.49
2017-01-17T09:46:05.222Z,36.77
2017-01-17T09:47:05.641Z,36.87
2017-01-17T09:48:05.269Z,36.87
2017-01-17T09:49:05.298Z,37.45
2017-01-17T09:50:05.323Z,36.97
2017-01-17T09:51:05.348Z,36.87
2017-01-17T09:52:05.372Z,36.87
2017-01-17T09:53:05.797Z,37.26
2017-01-17T09:54:05.822Z,37.16
2017-01-17T09:55:05.850Z,36.87
2017-01-17T09:56:05.883Z,36.97
2017-01-17T09:57:05.905Z,36.97
2017-01-17T09:58:05.529Z,37.16
2017-01-17T09:59:05.562Z,37.06
2017-01-17T10:00:05.583Z,37.45
2017-01-17T10:01:05.611Z,37.35
2017-01-17T10:02:05.636Z,36.97
2017-01-17T10:03:06.057Z,37.24
2017-01-17T10:04:06.115Z,37.04
2017-01-17T10:05:05.716Z,36.97
2017-01-17T10:06:06.139Z,37.14
2017-01-17T10:07:06.162Z,37.52
2017-01-17T10:08:06.184Z,37.62
2017-01-17T10:09:06.204Z,37.04
2017-01-17T10:10:06.239Z,37.24
2017-01-17T10:11:05.870Z,37.43
2017-01-17T10:12:06.287Z,37.24
2017-01-17T10:13:05.920Z,37.14
2017-01-17T10:14:06.356Z,37.62
2017-01-17T10:15:05.977Z,37.43
2017-01-17T10:16:06.398Z,37.62
2017-01-17T10:17:06.423Z,37.43
2017-01-17T10:18:06.055Z,37.52
2017-01-17T10:19:06.084Z,37.62
2017-01-17T10:20:06.105Z,37.52
2017-01-17T10:21:06.129Z,37.81
2017-01-17T10:22:06.162Z,38.1
2017-01-17T10:23:06.183Z,37.91
2017-01-17T10:24:06.208Z,37.72
2017-01-17T10:25:06.628Z,38.01
2017-01-17T10:26:06.657Z,38.1
2017-01-17T10:27:06.291Z,37.52
2017-01-17T10:28:06.314Z,38.1
2017-01-17T10:29:06.337Z,37.62
2017-01-17T10:30:06.368Z,37.79
2017-01-17T10:31:06.393Z,38.29
2017-01-17T10:32:06.415Z,37.89
2017-01-17T10:33:06.447Z,38.09
2017-01-17T10:34:06.866Z,37.99
2017-01-17T10:35:06.487Z,38.47
2017-01-17T10:36:06.520Z,38.47
2017-01-17T10:37:06.549Z,38.47
2017-01-17T10:38:06.970Z,38.18
2017-01-17T10:39:06.598Z,38.37
2017-01-17T10:40:06.627Z,38.28
2017-01-17T10:41:07.048Z,38.37
2017-01-17T10:42:07.076Z,38.18
2017-01-17T10:43:07.101Z,38.37
2017-01-17T10:44:07.434Z,38.76
2017-01-17T10:45:07.158Z,38.37
2017-01-17T10:46:07.180Z,38.09
2017-01-17T10:47:06.808Z,38.37
2017-01-17T10:48:07.233Z,38.28
2017-01-17T10:49:06.862Z,38.37
2017-01-17T10:50:07.278Z,38.95
2017-01-17T10:51:07.303Z,38.76
2017-01-17T10:52:06.937Z,38.18
2017-01-17T10:53:06.966Z,38.84
2017-01-17T10:54:06.993Z,38.76
2017-01-17T10:55:07.018Z,38.56
2017-01-17T10:56:07.439Z,38.85
2017-01-17T10:57:07.464Z,38.66
2017-01-17T10:58:07.492Z,38.56
2017-01-17T10:59:07.517Z,38.54
2017-01-17T11:00:07.542Z,38.54
2017-01-17T11:01:07.571Z,38.64
2017-01-17T11:02:07.199Z,38.84
2017-01-17T11:03:07.624Z,38.54
2017-01-17T11:04:07.649Z,38.54
2017-01-17T11:05:07.674Z,38.64
2017-01-17T11:06:07.698Z,38.64
2017-01-17T11:07:07.723Z,38.74
2017-01-17T11:08:07.356Z,38.84
2017-01-17T11:09:07.779Z,38.64
2017-01-17T11:10:07.409Z,38.84
2017-01-17T11:11:07.438Z,38.45
2017-01-17T11:12:07.850Z,38.45
2017-01-17T11:13:07.879Z,38.45
2017-01-17T11:14:07.510Z,38.93
2017-01-17T11:15:07.933Z,38.84
2017-01-17T11:16:07.560Z,38.45
2017-01-17T11:17:07.983Z,38.74
2017-01-17T11:18:07.611Z,39.12
2017-01-17T11:19:07.640Z,38.84
2017-01-17T11:20:08.060Z,38.84
2017-01-17T11:21:08.085Z,39.12
2017-01-17T11:22:07.722Z,39.12
2017-01-17T11:23:07.742Z,39.12
2017-01-17T11:24:07.763Z,39.12
2017-01-17T11:25:07.793Z,39.22
2017-01-17T11:26:08.249Z,39.22
2017-01-17T11:27:08.241Z,38.64
2017-01-17T11:28:08.266Z,38.84
2017-01-17T11:29:08.312Z,38.84
2017-01-17T11:30:08.319Z,38.93
2017-01-17T11:31:08.341Z,38.84
2017-01-17T11:32:07.973Z,38.64
2017-01-17T11:33:08.398Z,38.84
2017-01-17T11:34:08.026Z,38.54
2017-01-17T11:35:08.048Z,38.84
2017-01-17T11:36:08.076Z,38.93
2017-01-17T11:37:08.501Z,39.12
2017-01-17T11:38:08.525Z,38.84
2017-01-17T11:39:08.550Z,38.64
2017-01-17T11:40:08.575Z,38.64
2017-01-17T11:41:08.600Z,39.31
2017-01-17T11:42:08.233Z,38.84
2017-01-17T11:43:08.257Z,38.84
2017-01-17T11:44:08.282Z,38.64
2017-01-17T11:45:08.706Z,38.64
2017-01-17T11:46:08.727Z,39.22
2017-01-17T11:47:08.356Z,39.31
2017-01-17T11:48:08.785Z,39.22
2017-01-17T11:49:08.418Z,38.64
2017-01-17T11:50:08.435Z,38.74
2017-01-17T11:51:08.463Z,38.74
2017-01-17T11:52:08.492Z,38.74
2017-01-17T11:53:08.914Z,39.31
2017-01-17T11:54:08.961Z,39.12
2017-01-17T11:55:08.962Z,38.84
2017-01-17T11:56:08.591Z,38.84
2017-01-17T11:57:08.615Z,38.45
2017-01-17T11:58:09.037Z,38.45
2017-01-17T11:59:09.061Z,38.64
2017-01-17T12:00:09.090Z,38.35
2017-01-17T12:01:09.114Z,38.45
2017-01-17T12:02:09.142Z,38.45
2017-01-17T12:03:09.172Z,38.64
2017-01-17T12:04:08.816Z,38.74
2017-01-17T12:05:09.221Z,38.84
2017-01-17T12:06:09.250Z,38.84
2017-01-17T12:07:08.874Z,38.74
2017-01-17T12:08:08.903Z,38.45
2017-01-17T12:09:09.320Z,38.84
2017-01-17T12:10:09.348Z,39.79
2017-01-17T12:11:09.369Z,39.61
2017-01-17T12:12:09.401Z,40.08
2017-01-17T12:13:09.442Z,40.56
2017-01-17T12:14:09.451Z,40.18
2017-01-17T12:15:09.084Z,40.47
2017-01-17T12:16:09.504Z,40.37
2017-01-17T12:17:09.524Z,40.76
2017-01-17T12:18:09.549Z,40.76
2017-01-17T12:19:09.582Z,41.43
2017-01-17T12:20:09.210Z,41.14
2017-01-17T12:21:09.235Z,41.14
2017-01-17T12:22:09.269Z,41.33
2017-01-17T12:23:09.685Z,42
2017-01-17T12:24:09.718Z,41.91
2017-01-17T12:25:09.734Z,41.72
2017-01-17T12:26:09.763Z,41.91
2017-01-17T12:27:09.787Z,42.1
2017-01-17T12:28:09.424Z,42.2
2017-01-17T12:29:09.841Z,42.3
2017-01-17T12:30:09.866Z,42.2
2017-01-17T12:31:09.494Z,42.3
2017-01-17T12:32:09.919Z,42
2017-01-17T12:33:09.548Z,42.2
2017-01-17T12:34:09.572Z,42.39
2017-01-17T12:35:09.594Z,42.58
2017-01-17T12:36:09.621Z,42.49
2017-01-17T12:37:09.646Z,42.2
2017-01-17T12:38:10.075Z,42.58
2017-01-17T12:39:10.100Z,42.58
2017-01-17T12:40:10.123Z,42.97
2017-01-17T12:41:10.151Z,43.07
2017-01-17T12:42:10.178Z,43.07
2017-01-17T12:43:10.199Z,43.16
2017-01-17T12:44:10.235Z,43.07
2017-01-17T12:45:09.856Z,43.07
2017-01-17T12:46:09.885Z,42.97
2017-01-17T12:47:10.304Z,42.58
2017-01-17T12:48:10.329Z,43.07
2017-01-17T12:49:10.349Z,42.97
2017-01-17T12:50:09.986Z,42.58
2017-01-17T12:51:10.414Z,42.77
2017-01-17T12:52:10.027Z,42.87
2017-01-17T12:53:10.459Z,42.49
2017-01-17T12:54:10.088Z,42.68
2017-01-17T12:55:10.509Z,42.87